San Ygnacio, TX (78067)

5:06 AM CDT on May 25, 2015 (GMT -0500)
Zapata | | Change Station
CLOSE
Current Station
Airport
Location: Zapata,
Elevation: 423 ft
Nearby Weather Stations

Elev 423 ft 26.97 °N, 99.25 °W | Updated 11 minutes ago

Overcast
Overcast
76 °F
Feels Like 76 °F
N
8
Wind Variable Wind from SE
Gusts 16 mph

Today
High -- | Low -- °F
--% Chance of Precip.
Yesterday
High -- | Low -- °F
Precip. -- in
6:45 AM 8:24 PM
Waxing Crescent, 47% visible
Pressure 29.79 in
Visibility 7.0 miles
Clouds Overcast 1100 ft
Dew Point 74 °F
Humidity 95%
Rainfall 0.00 in
Snow Depth Not available.
UV 0 out of 12
Pollen 3.60 out of 12
Air Quality Not available.
Flu Activity Sporadic
METAR KAPY 250955Z AUTO 14007G14KT 7SM -RA OVC011 24/23 A2979 RMK AO2 T02430235

More Conditions Fewer Conditions

Pressure 29.79 in
Visibility 7.0 miles
Clouds Overcast 1100 ft
Dew Point 74 °F
Humidity 95%
Rainfall 0.00 in
Snow Depth Not available.
UV 0 out of 12
Pollen 3.60 out of 12
Air Quality Not available.
Flu Activity Sporadic
METAR KAPY 250955Z AUTO 14007G14KT 7SM -RA OVC011 24/23 A2979 RMK AO2 T02430235

More Conditions Fewer Conditions

10-Day Weather Forecast

Almanac

Astronomy

May. 25, 2015 Rise Set
Actual Time
Civil Twilight
Nautical Twilight
Astronomical Twilight
Moon
Length of Visible Light
Length of Day
Tomorrow will be .
, % of the Moon is Illuminated

Today's Extremes

State Highs State Lows

Community

WunderPhotos

Upload Photos

1,823,970 photos uploaded!

WunderBlogs® & News

Nearby

Air Quality

  Air Quality AQ Index Pollutant
Not available.

Snow Depth

Station Depth Elevation

Earthquake Activity

City Distance Mag. Time & Date
Minimum magnitude displayed is 2.5.

Coastal Water Temperatures

Place Temperature

Stations

Nearby Weather Stations

Station Location Temp. Windchill Dew Point Humidity Wind Precip. Elev Updated Type